| time (UTC) | temp C | wind direction | speed KPH | gust KPH | rain 1hr cm | rain 24hr cm | rain mn cm | humidity % | barometer mb |
| 20260504140243 | 19 | 166 | 6.4 | 16.1 | 0.00 | 0.00 | 0.00 | 67 | 1013.7 |
| 20260504130212 | 13 | 166 | 0.0 | 4.8 | 0.00 | 0.00 | 0.00 | 86 | 1014.0 |
| 20260504120143 | 10 | 146 | 0.0 | 0.0 | 0.00 | 0.00 | 0.00 | 94 | 1013.6 |
| 20260504110114 | 8 | 145 | 0.0 | 0.0 | 0.00 | 0.00 | 0.00 | 95 | 1013.0 |
| 20260504081952 | 9 | 197 | 0.0 | 0.0 | 0.00 | 0.00 | 0.00 | 89 | 1013.2 |
| 20260504080947 | 9 | 197 | 0.0 | 0.0 | 0.00 | 0.00 | 0.00 | 89 | 1013.2 |
| 20260504045811 | 9 | 180 | 0.0 | 0.0 | 0.00 | 0.00 | 0.00 | 88 | 1014.8 |
| 20260504044807 | 10 | 180 | 0.0 | 0.0 | 0.00 | 0.00 | 0.00 | 88 | 1014.8 |
| 20260504043802 | 10 | 180 | 0.0 | 0.0 | 0.00 | 0.00 | 0.00 | 87 | 1014.8 |
| 20260504042756 | 10 | 180 | 0.0 | 0.0 | 0.00 | 0.00 | 0.00 | 87 | 1014.8 |
| 20260504041751 | 10 | 180 | 0.0 | 0.0 | 0.00 | 0.00 | 0.00 | 87 | 1014.8 |
| 20260504040745 | 10 | 180 | 0.0 | 0.0 | 0.00 | 0.00 | 0.00 | 87 | 1014.6 |
| 20260504035741 | 10 | 180 | 0.0 | 0.0 | 0.00 | 0.00 | 0.00 | 88 | 1014.7 |
| 20260504034737 | 10 | 180 | 0.0 | 0.0 | 0.00 | 0.00 | 0.00 | 88 | 1014.7 |
| 20260504033731 | 10 | 180 | 0.0 | 0.0 | 0.00 | 0.00 | 0.00 | 88 | 1014.8 |
| 20260504032727 | 10 | 174 | 0.0 | 0.0 | 0.00 | 0.00 | 0.00 | 88 | 1015.2 |
| 20260504031722 | 10 | 173 | 0.0 | 0.0 | 0.00 | 0.00 | 0.00 | 87 | 1015.0 |
| 20260504030716 | 10 | 173 | 0.0 | 0.0 | 0.00 | 0.00 | 0.00 | 88 | 1015.1 |
| 20260504025711 | 9 | 173 | 0.0 | 0.0 | 0.00 | 0.00 | 0.00 | 88 | 1015.0 |
| 20260504024706 | 9 | 172 | 0.0 | 0.0 | 0.00 | 0.00 | 0.00 | 87 | 1015.0 |
| 20260504023700 | 10 | 173 | 0.0 | 0.0 | 0.00 | 0.00 | 0.00 | 88 | 1015.3 |
| 20260504022656 | 10 | 173 | 0.0 | 1.6 | 0.00 | 0.00 | 0.00 | 87 | 1015.0 |
| 20260504021651 | 10 | 199 | 0.0 | 1.6 | 0.00 | 0.00 | 0.00 | 87 | 1015.2 |
| 20260504020646 | 10 | 199 | 0.0 | 0.0 | 0.00 | 0.00 | 0.00 | 86 | 1015.1 |
| 20260504015640 | 10 | 199 | 0.0 | 0.0 | 0.00 | 0.00 | 0.00 | 85 | 1015.1 |
| 20260504014635 | 10 | 199 | 0.0 | 0.0 | 0.00 | 0.00 | 0.00 | 83 | 1015.0 |
| 20260504013630 | 11 | 199 | 0.0 | 0.0 | 0.00 | 0.00 | 0.00 | 81 | 1015.0 |
| 20260504012626 | 11 | 199 | 0.0 | 0.0 | 0.00 | 0.00 | 0.00 | 79 | 1014.9 |
| 20260504011620 | 11 | 199 | 0.0 | 0.0 | 0.00 | 0.00 | 0.00 | 77 | 1015.1 |
| 20260504010615 | 12 | 200 | 0.0 | 0.0 | 0.00 | 0.00 | 0.00 | 75 | 1014.8 |
| 20260504005610 | 12 | 200 | 0.0 | 0.0 | 0.00 | 0.00 | 0.00 | 72 | 1014.8 |
| 20260504004606 | 13 | 200 | 0.0 | 0.0 | 0.00 | 0.00 | 0.00 | 70 | 1014.8 |
| 20260504003600 | 13 | 200 | 0.0 | 0.0 | 0.00 | 0.00 | 0.00 | 66 | 1014.7 |
| 20260504002555 | 14 | 200 | 0.0 | 0.0 | 0.00 | 0.00 | 0.00 | 66 | 1014.9 |
| 20260504001551 | 15 | 201 | 0.0 | 0.0 | 0.00 | 0.00 | 0.00 | 61 | 1014.9 |
| 20260504000547 | 16 | 201 | 0.0 | 1.6 | 0.00 | 0.00 | 0.00 | 58 | 1015.0 |
| 20260503235541 | 16 | 201 | 0.0 | 1.6 | 0.00 | 0.00 | 0.00 | 56 | 1014.8 |
| 20260503234536 | 17 | 217 | 0.0 | 4.8 | 0.00 | 0.00 | 0.00 | 53 | 1015.1 |
| 20260503233532 | 17 | 229 | 0.0 | 6.4 | 0.00 | 0.00 | 0.00 | 52 | 1015.3 |
| 20260503232526 | 18 | 128 | 1.6 | 11.3 | 0.00 | 0.00 | 0.00 | 46 | 1014.9 |
| 20260503231521 | 18 | 49 | 1.6 | 4.8 | 0.00 | 0.00 | 0.00 | 49 | 1015.2 |
| 20260503230516 | 18 | 194 | 0.0 | 6.4 | 0.00 | 0.00 | 0.00 | 49 | 1015.4 |
| 20260503225510 | 18 | 206 | 1.6 | 1.6 | 0.00 | 0.00 | 0.00 | 46 | 1015.1 |
| 20260503224505 | 18 | 197 | 1.6 | 16.1 | 0.00 | 0.00 | 0.00 | 45 | 1015.4 |
| 20260503223500 | 18 | 242 | 0.0 | 11.3 | 0.00 | 0.00 | 0.00 | 43 | 1015.4 |
| 20260503222456 | 19 | 201 | 0.0 | 11.3 | 0.00 | 0.00 | 0.00 | 46 | 1015.6 |
| 20260503221452 | 19 | 169 | 1.6 | 11.3 | 0.00 | 0.00 | 0.00 | 46 | 1015.7 |
| 20260503220447 | 19 | 212 | 1.6 | 11.3 | 0.00 | 0.00 | 0.00 | 43 | 1015.9 |
| 20260503215440 | 19 | 235 | 6.4 | 11.3 | 0.00 | 0.00 | 0.00 | 42 | 1015.9 |
| 20260503214436 | 19 | 212 | 0.0 | 16.1 | 0.00 | 0.00 | 0.00 | 41 | 1016.4 |
| 20260503213431 | 20 | 167 | 0.0 | 4.8 | 0.00 | 0.00 | 0.00 | 43 | 1016.3 |
| 20260503212426 | 20 | 77 | 0.0 | 16.1 | 0.00 | 0.00 | 0.00 | 42 | 1016.5 |
| 20260503211420 | 21 | 12 | 4.8 | 11.3 | 0.00 | 0.00 | 0.00 | 39 | 1016.7 |
| 20260503210415 | 20 | 299 | 0.0 | 17.7 | 0.00 | 0.00 | 0.00 | 38 | 1016.8 |
| 20260503205410 | 21 | 325 | 6.4 | 9.7 | 0.00 | 0.00 | 0.00 | 40 | 1016.9 |
| 20260503204406 | 21 | 201 | 1.6 | 11.3 | 0.00 | 0.00 | 0.00 | 39 | 1017.0 |
| 20260503203401 | 21 | 237 | 6.4 | 11.3 | 0.00 | 0.00 | 0.00 | 39 | 1017.2 |
| 20260503202356 | 21 | 204 | 1.6 | 12.9 | 0.00 | 0.00 | 0.00 | 39 | 1017.2 |
| 20260503201350 | 20 | 119 | 3.2 | 14.5 | 0.00 | 0.00 | 0.00 | 39 | 1017.3 |
| 20260503200345 | 20 | 205 | 1.6 | 11.3 | 0.00 | 0.00 | 0.00 | 39 | 1017.7 |
| 20260503195340 | 20 | 92 | 0.0 | 14.5 | 0.00 | 0.00 | 0.00 | 40 | 1017.9 |
| 20260503194337 | 20 | 295 | 3.2 | 14.5 | 0.00 | 0.00 | 0.00 | 38 | 1018.0 |
| 20260503193332 | 20 | 198 | 8.0 | 24.1 | 0.00 | 0.00 | 0.00 | 37 | 1018.4 |
| 20260503192325 | 20 | 33 | 4.8 | 14.5 | 0.00 | 0.00 | 0.00 | 41 | 1018.6 |
| 20260503191322 | 19 | 195 | 4.8 | 29.0 | 0.00 | 0.00 | 0.00 | 40 | 1018.5 |
| 20260503190316 | 20 | 167 | 6.4 | 11.3 | 0.00 | 0.00 | 0.00 | 47 | 1018.5 |
| 20260503185311 | 20 | 225 | 8.0 | 16.1 | 0.00 | 0.00 | 0.00 | 39 | 1019.0 |
| 20260503184305 | 19 | 96 | 0.0 | 17.7 | 0.00 | 0.00 | 0.00 | 40 | 1018.7 |
| 20260503183301 | 19 | 178 | 11.3 | 20.9 | 0.00 | 0.00 | 0.00 | 41 | 1019.2 |
| 20260503182255 | 19 | 215 | 6.4 | 17.7 | 0.00 | 0.00 | 0.00 | 40 | 1019.3 |
| 20260503181250 | 18 | 242 | 4.8 | 16.1 | 0.00 | 0.00 | 0.00 | 41 | 1019.3 |
| 20260503180246 | 19 | 178 | 3.2 | 11.3 | 0.00 | 0.00 | 0.00 | 43 | 1019.7 |
| 20260503175241 | 18 | 195 | 1.6 | 8.0 | 0.00 | 0.00 | 0.00 | 43 | 1019.4 |
| 20260503174236 | 19 | 64 | 1.6 | 14.5 | 0.00 | 0.00 | 0.00 | 44 | 1019.8 |
| 20260503173231 | 18 | 121 | 9.7 | 22.5 | 0.00 | 0.00 | 0.00 | 43 | 1019.7 |
| 20260503172225 | 18 | 201 | 3.2 | 17.7 | 0.00 | 0.00 | 0.00 | 41 | 1019.9 |
| 20260503171220 | 18 | 55 | 1.6 | 6.4 | 0.00 | 0.00 | 0.00 | 46 | 1020.0 |
| 20260503170216 | 17 | 169 | 4.8 | 17.7 | 0.00 | 0.00 | 0.00 | 41 | 1020.4 |
| 20260503160146 | 16 | 200 | 6.4 | 8.0 | 0.00 | 0.00 | 0.00 | 45 | 1021.0 |
| 20260503150117 | 15 | 185 | 1.6 | 11.3 | 0.00 | 0.00 | 0.00 | 50 | 1021.2 |